createdAt,value
2017-12-13T00:01:15.846Z,1.59
2017-12-13T00:03:43.549Z,1.51
2017-12-13T00:06:11.227Z,1.45
2017-12-13T00:08:38.968Z,1.49
2017-12-13T00:11:07.593Z,1.41
2017-12-13T00:13:35.281Z,1.43
2017-12-13T00:16:03.003Z,1.43
2017-12-13T00:18:30.765Z,1.39
2017-12-13T00:20:58.534Z,1.45
2017-12-13T00:23:26.277Z,1.47
2017-12-13T00:25:53.981Z,1.33
2017-12-13T00:28:21.715Z,1.46
2017-12-13T00:30:49.578Z,1.48
2017-12-13T00:33:17.297Z,1.39
2017-12-13T00:35:44.959Z,1.36
2017-12-13T00:38:12.717Z,1.34
2017-12-13T00:40:40.477Z,1.35
2017-12-13T00:43:08.146Z,1.30
2017-12-13T00:45:35.836Z,1.34
2017-12-13T00:48:03.622Z,1.25
2017-12-13T00:50:31.306Z,1.19
2017-12-13T00:52:59.042Z,1.22
2017-12-13T00:55:26.790Z,1.25
2017-12-13T00:57:54.521Z,1.20
2017-12-13T01:00:22.278Z,1.24
2017-12-13T01:02:49.954Z,1.26
2017-12-13T01:05:17.705Z,1.23
2017-12-13T01:07:45.410Z,1.17
2017-12-13T01:10:13.186Z,1.25
2017-12-13T01:12:40.877Z,1.24
2017-12-13T01:15:09.215Z,1.29
2017-12-13T01:17:36.895Z,1.29
2017-12-13T01:20:04.637Z,1.30
2017-12-13T01:22:32.482Z,1.30
2017-12-13T01:25:00.195Z,1.28
2017-12-13T01:27:27.914Z,1.32
2017-12-13T01:29:55.641Z,1.29
2017-12-13T01:32:23.317Z,1.28
2017-12-13T01:34:51.060Z,1.18
2017-12-13T01:37:18.785Z,1.12
2017-12-13T01:39:46.493Z,1.14
2017-12-13T01:42:14.249Z,1.12
2017-12-13T01:44:41.996Z,1.13
2017-12-13T01:47:09.736Z,1.10
2017-12-13T01:49:37.501Z,1.13
2017-12-13T01:52:05.226Z,1.17
2017-12-13T01:54:32.915Z,1.11
2017-12-13T01:57:00.626Z,1.18
2017-12-13T01:59:28.310Z,1.20
2017-12-13T02:01:56.044Z,1.20
2017-12-13T02:04:23.769Z,1.26
2017-12-13T02:06:51.535Z,1.29
2017-12-13T02:09:19.268Z,1.21
2017-12-13T02:11:47.061Z,1.19
2017-12-13T02:14:14.788Z,1.14
2017-12-13T02:16:42.524Z,1.14
2017-12-13T02:19:10.288Z,1.09
2017-12-13T02:21:38.022Z,1.09
2017-12-13T02:24:05.810Z,1.09
2017-12-13T02:26:33.541Z,1.07
2017-12-13T02:29:01.259Z,1.11
2017-12-13T02:31:28.948Z,1.10
2017-12-13T02:33:56.643Z,1.07
2017-12-13T02:36:24.377Z,1.04
2017-12-13T02:38:52.049Z,1.01
2017-12-13T02:41:19.786Z,0.99
2017-12-13T02:43:47.540Z,0.94
2017-12-13T02:46:15.241Z,0.94
2017-12-13T02:48:42.952Z,0.94
2017-12-13T02:51:10.670Z,0.99
2017-12-13T02:53:38.424Z,0.99
2017-12-13T02:56:06.189Z,0.98
2017-12-13T02:58:33.997Z,0.92
2017-12-13T03:01:01.730Z,0.92
2017-12-13T03:03:29.438Z,0.87
2017-12-13T03:05:57.259Z,0.83
2017-12-13T03:08:24.996Z,0.77
2017-12-13T03:10:52.910Z,0.81
2017-12-13T03:13:20.668Z,0.75
2017-12-13T03:15:48.425Z,0.68
2017-12-13T03:18:16.189Z,0.62
2017-12-13T03:20:44.032Z,0.68
2017-12-13T03:23:11.786Z,0.63
2017-12-13T03:25:39.500Z,0.52
2017-12-13T03:28:07.187Z,0.46
2017-12-13T03:30:34.927Z,0.37
2017-12-13T03:33:02.598Z,0.32
2017-12-13T03:35:31.309Z,0.25
2017-12-13T03:37:59.019Z,0.28
2017-12-13T03:40:26.771Z,0.24
2017-12-13T03:42:54.444Z,0.28
2017-12-13T03:45:22.133Z,0.20
2017-12-13T03:47:49.867Z,0.25
2017-12-13T03:50:17.618Z,0.27
2017-12-13T03:52:45.386Z,0.24
2017-12-13T03:55:13.107Z,0.28
2017-12-13T03:57:40.822Z,0.25
2017-12-13T04:00:08.619Z,0.26
2017-12-13T04:02:36.972Z,0.27
2017-12-13T04:05:04.767Z,0.31
2017-12-13T04:07:32.511Z,0.38
2017-12-13T04:10:00.442Z,0.38
2017-12-13T04:12:28.127Z,0.47
2017-12-13T04:14:55.886Z,0.55
2017-12-13T04:17:23.579Z,0.55
2017-12-13T04:19:51.303Z,0.60
2017-12-13T04:22:19.066Z,0.60
2017-12-13T04:24:46.772Z,0.58
2017-12-13T04:27:14.506Z,0.48
2017-12-13T04:29:42.211Z,0.55
2017-12-13T04:32:09.970Z,0.52
2017-12-13T04:34:37.694Z,0.51
2017-12-13T04:37:05.458Z,0.51
2017-12-13T04:39:33.142Z,0.48
2017-12-13T04:42:00.864Z,0.46
2017-12-13T04:44:28.572Z,0.41
2017-12-13T04:46:56.259Z,0.38
2017-12-13T04:49:23.991Z,0.43
2017-12-13T04:51:51.743Z,0.32
2017-12-13T04:54:19.485Z,0.40
2017-12-13T04:56:47.159Z,0.31
2017-12-13T04:59:14.937Z,0.27
2017-12-13T05:01:43.572Z,0.28
2017-12-13T05:04:11.279Z,0.15
2017-12-13T05:06:39.032Z,0.08
2017-12-13T05:09:06.739Z,0.12
2017-12-13T05:11:34.464Z,0.25
2017-12-13T05:14:02.306Z,0.45
2017-12-13T05:16:29.998Z,0.25
2017-12-13T05:18:57.745Z,0.01
2017-12-13T05:21:25.495Z,-0.03
2017-12-13T05:23:53.237Z,-0.07
2017-12-13T05:26:21.016Z,-0.18
2017-12-13T05:28:48.844Z,-0.23
2017-12-13T05:31:16.555Z,-0.21
2017-12-13T05:33:44.281Z,-0.21
2017-12-13T05:36:12.225Z,-0.15
2017-12-13T05:38:40.974Z,-0.12
2017-12-13T05:41:08.684Z,-0.18
2017-12-13T05:43:36.470Z,-0.11
2017-12-13T05:46:04.170Z,-0.07
2017-12-13T05:48:31.894Z,-0.05
2017-12-13T05:50:59.637Z,0.03
2017-12-13T05:53:27.314Z,0.02
2017-12-13T05:55:55.053Z,-0.01
2017-12-13T05:58:22.736Z,0.06
2017-12-13T06:00:50.592Z,0.06
2017-12-13T06:03:18.266Z,0.07
2017-12-13T06:05:45.965Z,-0.05
2017-12-13T06:08:13.798Z,-0.07
2017-12-13T06:10:41.608Z,-0.05
2017-12-13T06:13:09.359Z,-0.04
2017-12-13T06:15:37.107Z,-0.01
2017-12-13T06:18:04.806Z,-0.11
2017-12-13T06:20:32.537Z,-0.15
2017-12-13T06:23:00.238Z,-0.05
2017-12-13T06:25:27.909Z,0.07
2017-12-13T06:27:56.520Z,0.08
2017-12-13T06:30:24.248Z,0.06
2017-12-13T06:32:51.937Z,0.13
2017-12-13T06:35:19.775Z,0.17
2017-12-13T06:37:47.551Z,0.10
2017-12-13T06:40:15.481Z,0.09
2017-12-13T06:42:43.217Z,0.03
2017-12-13T06:45:11.186Z,0.06
2017-12-13T06:47:38.890Z,0.07
2017-12-13T06:50:06.586Z,0.05
2017-12-13T06:52:34.306Z,0.09
2017-12-13T06:55:02.038Z,0.07
2017-12-13T06:57:29.751Z,0.06
2017-12-13T06:59:57.551Z,0.01
2017-12-13T07:02:25.264Z,0.02
2017-12-13T07:04:52.994Z,0.10
2017-12-13T07:07:20.749Z,0.04
2017-12-13T07:09:48.550Z,0.05
2017-12-13T07:12:16.317Z,-0.15
2017-12-13T07:14:44.050Z,-0.14
2017-12-13T07:17:11.849Z,-0.13
2017-12-13T07:19:39.643Z,-0.07
2017-12-13T07:22:07.428Z,-0.06
2017-12-13T07:24:35.153Z,0.07
2017-12-13T07:27:02.977Z,0.05
2017-12-13T07:29:30.730Z,0.03
2017-12-13T07:31:58.535Z,-0.03
2017-12-13T07:34:26.397Z,0.01
2017-12-13T07:36:54.143Z,-0.01
2017-12-13T07:39:21.926Z,-0.02
2017-12-13T07:41:49.620Z,-0.02
2017-12-13T07:44:17.345Z,0.02
2017-12-13T07:46:45.023Z,0.12
2017-12-13T07:49:12.765Z,0.24
2017-12-13T07:51:40.508Z,0.31
2017-12-13T07:54:08.277Z,0.28
2017-12-13T07:56:36.001Z,0.29
2017-12-13T07:59:03.688Z,0.29
2017-12-13T08:01:31.467Z,0.42
2017-12-13T08:03:59.163Z,0.47
2017-12-13T08:06:26.909Z,0.53
2017-12-13T08:08:54.619Z,0.43
2017-12-13T08:11:22.369Z,0.58
2017-12-13T08:13:50.080Z,1.48
2017-12-13T08:16:17.756Z,2.05
2017-12-13T08:18:45.567Z,2.22
2017-12-13T08:21:13.349Z,2.53
2017-12-13T08:23:41.119Z,2.73
2017-12-13T08:26:08.890Z,2.01
2017-12-13T08:28:36.628Z,1.71
2017-12-13T08:31:04.348Z,2.06
2017-12-13T08:33:33.132Z,1.76
2017-12-13T08:36:00.823Z,1.53
2017-12-13T08:38:28.537Z,1.41
2017-12-13T08:40:56.352Z,1.28
2017-12-13T08:43:24.089Z,1.18
2017-12-13T08:45:51.886Z,1.10
2017-12-13T08:48:19.762Z,1.10
2017-12-13T08:50:47.491Z,0.97
2017-12-13T08:53:15.207Z,0.90
2017-12-13T08:55:42.950Z,0.84
2017-12-13T08:58:10.700Z,0.79
2017-12-13T09:00:38.471Z,0.90
2017-12-13T09:03:06.173Z,1.09
2017-12-13T09:05:33.939Z,1.08
2017-12-13T09:08:01.661Z,0.97
2017-12-13T09:10:29.434Z,1.00
2017-12-13T09:12:57.211Z,1.20
2017-12-13T09:15:24.979Z,1.09
2017-12-13T09:17:53.073Z,1.19
2017-12-13T09:20:20.839Z,1.03
2017-12-13T09:22:48.547Z,0.85
2017-12-13T09:25:16.321Z,0.90
2017-12-13T09:27:44.060Z,1.17
2017-12-13T09:30:11.950Z,1.07
2017-12-13T09:32:39.731Z,1.18
2017-12-13T09:35:07.481Z,1.51
2017-12-13T09:37:36.608Z,1.70
2017-12-13T09:40:04.651Z,1.69
2017-12-13T09:42:32.358Z,1.58
2017-12-13T09:45:00.144Z,1.83
2017-12-13T09:47:27.951Z,1.98
2017-12-13T09:49:55.663Z,1.68
2017-12-13T09:52:23.407Z,1.53
2017-12-13T09:54:51.120Z,1.61
2017-12-13T09:57:18.943Z,1.74
2017-12-13T09:59:46.650Z,1.70
2017-12-13T10:02:14.505Z,1.84
2017-12-13T10:04:43.297Z,2.03
2017-12-13T10:07:11.052Z,2.22
2017-12-13T10:09:38.828Z,2.65
2017-12-13T10:12:06.587Z,3.58
2017-12-13T10:14:34.344Z,3.68
2017-12-13T10:17:02.112Z,3.59
2017-12-13T10:19:31.106Z,3.78
2017-12-13T10:21:58.817Z,3.79
2017-12-13T10:24:26.544Z,3.35
2017-12-13T10:26:54.302Z,3.45
2017-12-13T10:29:22.092Z,3.02
2017-12-13T10:31:49.813Z,3.45
2017-12-13T10:34:17.595Z,3.17
2017-12-13T10:36:45.357Z,2.86
2017-12-13T10:39:13.143Z,2.83
2017-12-13T10:41:40.873Z,2.85
2017-12-13T10:44:08.674Z,2.73
2017-12-13T10:46:36.490Z,2.90
2017-12-13T10:49:05.059Z,3.11
2017-12-13T10:51:32.781Z,3.27
2017-12-13T10:54:00.566Z,3.36
2017-12-13T10:56:28.362Z,3.35
2017-12-13T10:58:56.171Z,3.37
2017-12-13T11:01:23.916Z,3.24
2017-12-13T11:03:51.617Z,3.35
2017-12-13T11:06:19.345Z,3.28
2017-12-13T11:08:47.073Z,3.23
2017-12-13T11:11:14.801Z,3.21
2017-12-13T11:13:42.554Z,3.57
2017-12-13T11:16:10.273Z,3.82
2017-12-13T11:18:38.077Z,3.94
2017-12-13T11:21:06.070Z,4.11
2017-12-13T11:23:33.902Z,3.95
2017-12-13T11:26:01.721Z,3.80
2017-12-13T11:28:29.530Z,3.76
2017-12-13T11:30:57.307Z,3.66
2017-12-13T11:33:25.071Z,3.64
2017-12-13T11:35:52.837Z,3.74
2017-12-13T11:38:20.644Z,3.93
2017-12-13T11:40:48.416Z,3.84
2017-12-13T11:43:16.177Z,3.46
2017-12-13T11:45:43.902Z,3.37
2017-12-13T11:48:11.593Z,3.45
2017-12-13T11:50:39.337Z,3.43
2017-12-13T11:53:07.088Z,3.68
2017-12-13T11:55:34.773Z,3.92
2017-12-13T11:58:02.498Z,3.78
2017-12-13T12:00:30.287Z,4.00
2017-12-13T12:02:57.995Z,3.83
2017-12-13T12:05:25.753Z,3.87
2017-12-13T12:07:53.447Z,3.93
2017-12-13T12:10:21.188Z,4.00
2017-12-13T12:12:48.937Z,4.20
2017-12-13T12:15:16.728Z,4.42
2017-12-13T12:17:44.442Z,5.05
2017-12-13T12:20:12.222Z,5.00
2017-12-13T12:22:39.998Z,4.66
2017-12-13T12:25:07.714Z,4.72
2017-12-13T12:27:35.453Z,4.58
2017-12-13T12:30:03.186Z,5.17
2017-12-13T12:32:30.951Z,5.57
2017-12-13T12:34:58.703Z,5.54
2017-12-13T12:37:26.458Z,5.31
2017-12-13T12:39:54.209Z,5.30
2017-12-13T12:42:21.986Z,5.20
2017-12-13T12:44:49.715Z,5.87
2017-12-13T12:47:17.463Z,6.43
2017-12-13T12:49:45.184Z,6.16
2017-12-13T12:52:12.934Z,6.45
2017-12-13T12:54:40.731Z,6.22
2017-12-13T12:57:08.449Z,6.10
2017-12-13T12:59:36.227Z,5.91
2017-12-13T13:02:03.942Z,5.41
2017-12-13T13:04:31.705Z,5.41
2017-12-13T13:06:59.432Z,5.25
2017-12-13T13:09:27.223Z,5.11
2017-12-13T13:11:55.015Z,4.94
2017-12-13T13:14:22.751Z,4.82
2017-12-13T13:16:50.513Z,4.81
2017-12-13T13:19:18.593Z,4.53
2017-12-13T13:21:46.307Z,4.63
2017-12-13T13:24:14.315Z,4.51
2017-12-13T13:26:41.996Z,4.41
2017-12-13T13:29:09.709Z,4.18
2017-12-13T13:31:37.528Z,4.25
2017-12-13T13:34:05.320Z,4.14
2017-12-13T13:36:33.095Z,4.24
2017-12-13T13:39:00.866Z,4.23
2017-12-13T13:41:28.570Z,4.10
2017-12-13T13:43:56.342Z,4.16
2017-12-13T13:46:24.021Z,4.15
2017-12-13T13:48:51.731Z,3.71
2017-12-13T13:51:19.479Z,3.51
2017-12-13T13:53:47.305Z,3.43
2017-12-13T13:56:15.022Z,3.44
2017-12-13T13:58:42.734Z,3.57
2017-12-13T14:01:10.511Z,3.43
2017-12-13T14:03:38.183Z,3.44
2017-12-13T14:06:05.910Z,3.05
2017-12-13T14:08:33.648Z,2.96
2017-12-13T14:11:01.344Z,2.83
2017-12-13T14:13:29.098Z,2.75
2017-12-13T14:15:57.880Z,2.54
2017-12-13T14:18:25.585Z,2.45
2017-12-13T14:20:53.363Z,2.28
2017-12-13T14:23:21.460Z,2.26
2017-12-13T14:25:49.202Z,2.39
2017-12-13T14:28:16.953Z,2.21
2017-12-13T14:30:44.775Z,2.21
2017-12-13T14:33:12.533Z,2.05
2017-12-13T14:35:40.243Z,2.15
2017-12-13T14:38:07.948Z,2.01
2017-12-13T14:40:36.342Z,1.94
2017-12-13T14:43:04.069Z,1.88
2017-12-13T14:45:31.748Z,1.76
2017-12-13T14:47:59.558Z,1.59
2017-12-13T14:50:27.816Z,1.67
2017-12-13T14:52:55.538Z,1.47
2017-12-13T14:55:23.254Z,1.55
2017-12-13T14:57:50.981Z,1.61
2017-12-13T15:00:18.720Z,1.41
2017-12-13T15:02:46.455Z,1.45
2017-12-13T15:05:14.204Z,1.62
2017-12-13T15:07:41.983Z,1.43
2017-12-13T15:10:09.759Z,1.37
2017-12-13T15:12:37.580Z,1.12
2017-12-13T15:15:05.353Z,1.15
2017-12-13T15:17:33.165Z,1.00
2017-12-13T15:20:00.917Z,0.96
2017-12-13T15:22:28.743Z,0.88
2017-12-13T15:24:56.605Z,0.96
2017-12-13T15:27:24.273Z,0.96
2017-12-13T15:29:52.033Z,0.79
2017-12-13T15:32:19.729Z,0.74
2017-12-13T15:34:48.509Z,0.71
2017-12-13T15:37:16.478Z,0.80
2017-12-13T15:39:44.392Z,0.69
2017-12-13T15:42:12.198Z,0.64
2017-12-13T15:44:39.967Z,0.64
2017-12-13T15:47:07.713Z,0.57
2017-12-13T15:49:35.477Z,0.43
2017-12-13T15:52:03.304Z,0.24
2017-12-13T15:54:31.136Z,0.26
2017-12-13T15:56:58.909Z,0.24
2017-12-13T15:59:27.439Z,0.31
2017-12-13T16:01:55.206Z,0.25
2017-12-13T16:04:23.079Z,0.21
2017-12-13T16:06:50.868Z,0.25
2017-12-13T16:09:19.612Z,0.30
2017-12-13T16:11:47.362Z,0.33
2017-12-13T16:14:15.132Z,0.32
2017-12-13T16:16:42.933Z,0.25
2017-12-13T16:19:10.639Z,0.12
2017-12-13T16:21:38.395Z,0.10
2017-12-13T16:24:06.901Z,0.07
2017-12-13T16:26:34.602Z,0.03
2017-12-13T16:29:02.330Z,0.06
2017-12-13T16:31:30.182Z,0.12
2017-12-13T16:33:58.413Z,0.07
2017-12-13T16:36:26.756Z,0.12
2017-12-13T16:38:54.508Z,0.08
2017-12-13T16:41:22.326Z,0.00
2017-12-13T16:43:50.098Z,0.01
2017-12-13T16:46:17.816Z,0.03
2017-12-13T16:48:45.545Z,-0.10
2017-12-13T16:51:13.340Z,-0.14
2017-12-13T16:53:41.528Z,-0.14
2017-12-13T16:56:09.492Z,-0.27
2017-12-13T16:58:37.758Z,-0.26
2017-12-13T17:01:05.601Z,-0.18
2017-12-13T17:03:34.162Z,-0.20
2017-12-13T17:06:01.973Z,-0.21
2017-12-13T17:08:29.828Z,-0.25
2017-12-13T17:10:57.680Z,-0.14
2017-12-13T17:13:25.472Z,-0.34
2017-12-13T17:15:54.289Z,-0.42
2017-12-13T17:18:23.265Z,-0.40
2017-12-13T17:20:51.070Z,-0.40
2017-12-13T17:23:19.017Z,-0.52
2017-12-13T17:25:46.968Z,-0.52
2017-12-13T17:28:14.868Z,-0.65
2017-12-13T17:30:42.867Z,-0.70
2017-12-13T17:33:10.700Z,-0.76
2017-12-13T17:35:38.519Z,-0.78
2017-12-13T17:38:06.361Z,-0.82
2017-12-13T17:40:34.250Z,-0.80
2017-12-13T17:43:02.182Z,-0.79
2017-12-13T17:45:30.950Z,-0.83
2017-12-13T17:47:58.698Z,-0.91
2017-12-13T17:50:26.479Z,-0.96
2017-12-13T17:52:54.632Z,-0.91
2017-12-13T17:55:22.450Z,-0.86
2017-12-13T17:57:50.375Z,-0.75
2017-12-13T18:00:18.276Z,-0.91
2017-12-13T18:02:46.537Z,-0.96
2017-12-13T18:05:14.364Z,-0.96
2017-12-13T18:07:42.376Z,-0.94
2017-12-13T18:10:10.344Z,-0.94
2017-12-13T18:12:38.661Z,-0.96
2017-12-13T18:15:06.544Z,-0.89
2017-12-13T18:17:34.443Z,-0.86
2017-12-13T18:20:02.261Z,-0.91
2017-12-13T18:22:30.058Z,-0.88
2017-12-13T18:24:58.429Z,-0.80
2017-12-13T18:27:26.185Z,-0.85
2017-12-13T18:29:54.880Z,-0.88
2017-12-13T18:32:22.673Z,-0.86
2017-12-13T18:34:50.512Z,-1.02
2017-12-13T18:37:18.322Z,-1.06
2017-12-13T18:39:46.128Z,-1.24
2017-12-13T18:42:13.997Z,-1.27
2017-12-13T18:44:42.802Z,-1.27
2017-12-13T18:47:10.575Z,-1.36
2017-12-13T18:49:38.509Z,-1.42
2017-12-13T18:52:06.226Z,-1.39
2017-12-13T18:54:34.934Z,-1.33
2017-12-13T18:57:02.852Z,-1.54
2017-12-13T18:59:30.756Z,-1.54
2017-12-13T19:01:59.203Z,-1.52
2017-12-13T19:04:27.131Z,-1.49
2017-12-13T19:06:55.110Z,-1.55
2017-12-13T19:09:23.284Z,-1.53
2017-12-13T19:11:51.177Z,-1.57
2017-12-13T19:14:18.956Z,-1.51
2017-12-13T19:16:46.762Z,-1.57
2017-12-13T19:19:14.572Z,-1.66
2017-12-13T19:21:43.188Z,-1.69
2017-12-13T19:24:10.997Z,-1.68
2017-12-13T19:26:38.816Z,-1.67
2017-12-13T19:29:07.164Z,-1.61
2017-12-13T19:31:34.925Z,-1.68
2017-12-13T19:34:03.382Z,-1.73
2017-12-13T19:36:32.143Z,-1.68
2017-12-13T19:38:59.898Z,-1.70
2017-12-13T19:41:29.070Z,-1.62
2017-12-13T19:43:58.916Z,-1.61
2017-12-13T19:46:26.965Z,-1.64
2017-12-13T19:48:54.783Z,-1.65
2017-12-13T19:51:23.330Z,-1.59
2017-12-13T19:53:51.245Z,-1.70
2017-12-13T19:56:19.172Z,-1.69
2017-12-13T19:58:47.044Z,-1.73
2017-12-13T20:01:14.934Z,-1.69
2017-12-13T20:03:43.095Z,-1.55
2017-12-13T20:06:11.389Z,-1.55
2017-12-13T20:08:39.857Z,-1.59
2017-12-13T20:11:09.005Z,-1.58
2017-12-13T20:13:36.856Z,-1.60
2017-12-13T20:16:05.485Z,-1.54
2017-12-13T20:18:33.322Z,-1.54
2017-12-13T20:21:01.683Z,-1.67
2017-12-13T20:23:31.163Z,-1.62
2017-12-13T20:25:59.942Z,-1.58
2017-12-13T20:28:28.294Z,-1.53
2017-12-13T20:30:56.389Z,-1.53
2017-12-13T20:33:24.407Z,-1.49
2017-12-13T20:35:52.638Z,-1.58
2017-12-13T20:38:20.482Z,-1.56
2017-12-13T20:40:48.307Z,-1.78
2017-12-13T20:43:16.012Z,-1.72
2017-12-13T20:45:44.092Z,-1.64
2017-12-13T20:48:11.824Z,-1.55
2017-12-13T20:50:39.733Z,-1.52
2017-12-13T20:53:08.755Z,-1.48
2017-12-13T20:55:36.679Z,-1.53
2017-12-13T20:58:04.517Z,-1.69
2017-12-13T21:00:32.243Z,-1.65
2017-12-13T21:03:00.074Z,-1.63
2017-12-13T21:05:28.230Z,-1.62
2017-12-13T21:07:55.991Z,-1.61
2017-12-13T21:10:23.761Z,-1.56
2017-12-13T21:12:51.552Z,-1.52
2017-12-13T21:15:19.308Z,-1.57
2017-12-13T21:17:47.784Z,-1.55
2017-12-13T21:20:15.734Z,-1.61
2017-12-13T21:22:43.497Z,-1.68
2017-12-13T21:25:11.273Z,-1.61
2017-12-13T21:27:38.996Z,-1.61
2017-12-13T21:30:06.874Z,-1.73
2017-12-13T21:32:34.597Z,-1.73
2017-12-13T21:35:03.931Z,-1.75
2017-12-13T21:37:31.761Z,-1.75
2017-12-13T21:39:59.427Z,-1.78
2017-12-13T21:42:27.351Z,-1.83
2017-12-13T21:44:55.183Z,-1.86
2017-12-13T21:47:22.887Z,-1.93
2017-12-13T21:49:50.700Z,-1.95
2017-12-13T21:52:18.413Z,-1.91
2017-12-13T21:54:46.206Z,-1.93
2017-12-13T21:57:13.953Z,-1.94
2017-12-13T21:59:41.999Z,-2.10
2017-12-13T22:02:09.826Z,-2.25
2017-12-13T22:04:38.049Z,-2.08
2017-12-13T22:07:06.192Z,-2.20
2017-12-13T22:09:33.919Z,-2.15
2017-12-13T22:12:01.712Z,-2.20
2017-12-13T22:14:29.466Z,-2.21
2017-12-13T22:16:57.295Z,-2.30
2017-12-13T22:19:25.106Z,-2.24
2017-12-13T22:21:52.916Z,-2.24
2017-12-13T22:24:20.697Z,-2.22
2017-12-13T22:26:48.717Z,-2.32
2017-12-13T22:29:16.915Z,-2.33
2017-12-13T22:31:44.738Z,-2.29
2017-12-13T22:34:12.450Z,-2.26
2017-12-13T22:36:40.326Z,-2.42
2017-12-13T22:39:08.319Z,-2.55
2017-12-13T22:41:36.094Z,-2.64
2017-12-13T22:44:03.890Z,-2.59
2017-12-13T22:46:31.673Z,-2.49
2017-12-13T22:48:59.428Z,-2.59
2017-12-13T22:51:27.209Z,-2.58
2017-12-13T22:53:54.910Z,-2.70
2017-12-13T22:56:23.868Z,-2.64
2017-12-13T22:58:51.574Z,-2.62
2017-12-13T23:01:19.374Z,-2.60
2017-12-13T23:03:47.122Z,-2.60
2017-12-13T23:06:14.823Z,-2.58
2017-12-13T23:08:42.587Z,-2.65
2017-12-13T23:11:10.297Z,-2.66
2017-12-13T23:13:38.014Z,-2.46
2017-12-13T23:16:05.776Z,-2.67
2017-12-13T23:18:33.515Z,-2.65
2017-12-13T23:21:01.262Z,-2.67
2017-12-13T23:23:28.948Z,-2.77
2017-12-13T23:25:56.698Z,-2.70
2017-12-13T23:28:24.506Z,-2.72
2017-12-13T23:30:52.299Z,-2.68
2017-12-13T23:33:20.022Z,-2.73
2017-12-13T23:35:47.720Z,-2.79
2017-12-13T23:38:15.463Z,-2.88
2017-12-13T23:40:43.132Z,-2.86
2017-12-13T23:43:10.921Z,-2.84
2017-12-13T23:45:38.710Z,-2.77
2017-12-13T23:48:06.454Z,-2.82
2017-12-13T23:50:34.200Z,-2.89
2017-12-13T23:53:01.934Z,-2.82
2017-12-13T23:55:29.672Z,-3.06
2017-12-13T23:57:57.396Z,-3.19
